sensor_id;sensor_type;location;lat;lon;timestamp;temperature;humidity
54485;DHT22;45006;56.958;24.166;2023-06-24T00:02:23;25.70;70.00
54485;DHT22;45006;56.958;24.166;2023-06-24T00:04:51;25.70;70.80
54485;DHT22;45006;56.958;24.166;2023-06-24T00:07:21;25.70;70.00
54485;DHT22;45006;56.958;24.166;2023-06-24T00:09:49;25.70;70.00
54485;DHT22;45006;56.958;24.166;2023-06-24T00:12:16;25.70;69.90
54485;DHT22;45006;56.958;24.166;2023-06-24T00:14:50;25.70;69.80
54485;DHT22;45006;56.958;24.166;2023-06-24T00:17:17;25.70;69.90
54485;DHT22;45006;56.958;24.166;2023-06-24T00:19:45;25.70;69.70
54485;DHT22;45006;56.958;24.166;2023-06-24T00:22:14;25.70;69.70
54485;DHT22;45006;56.958;24.166;2023-06-24T00:24:42;25.70;69.70
54485;DHT22;45006;56.958;24.166;2023-06-24T00:27:10;25.70;69.50
54485;DHT22;45006;56.958;24.166;2023-06-24T00:29:37;25.70;69.50
54485;DHT22;45006;56.958;24.166;2023-06-24T00:32:05;25.70;69.60
54485;DHT22;45006;56.958;24.166;2023-06-24T00:34:32;25.70;69.40
54485;DHT22;45006;56.958;24.166;2023-06-24T00:36:59;25.70;69.50
54485;DHT22;45006;56.958;24.166;2023-06-24T00:39:27;25.70;69.80
54485;DHT22;45006;56.958;24.166;2023-06-24T00:41:54;25.70;69.90
54485;DHT22;45006;56.958;24.166;2023-06-24T00:44:21;25.70;69.60
54485;DHT22;45006;56.958;24.166;2023-06-24T00:46:48;25.70;69.70
54485;DHT22;45006;56.958;24.166;2023-06-24T00:49:16;25.70;69.30
54485;DHT22;45006;56.958;24.166;2023-06-24T00:51:43;25.70;69.10
54485;DHT22;45006;56.958;24.166;2023-06-24T00:54:14;25.70;68.90
54485;DHT22;45006;56.958;24.166;2023-06-24T00:56:45;25.70;69.00
54485;DHT22;45006;56.958;24.166;2023-06-24T00:59:14;25.70;69.00
54485;DHT22;45006;56.958;24.166;2023-06-24T01:01:41;25.70;68.90
54485;DHT22;45006;56.958;24.166;2023-06-24T01:04:09;25.70;69.10
54485;DHT22;45006;56.958;24.166;2023-06-24T01:06:37;25.70;69.00
54485;DHT22;45006;56.958;24.166;2023-06-24T01:09:10;25.70;69.10
54485;DHT22;45006;56.958;24.166;2023-06-24T01:11:38;25.70;69.00
54485;DHT22;45006;56.958;24.166;2023-06-24T01:14:05;25.70;69.50
54485;DHT22;45006;56.958;24.166;2023-06-24T01:16:53;25.70;69.70
54485;DHT22;45006;56.958;24.166;2023-06-24T01:30:50;25.70;69.30
54485;DHT22;45006;56.958;24.166;2023-06-24T01:33:45;25.70;69.10
54485;DHT22;45006;56.958;24.166;2023-06-24T01:36:16;25.70;68.90
54485;DHT22;45006;56.958;24.166;2023-06-24T01:38:52;25.70;68.80
54485;DHT22;45006;56.958;24.166;2023-06-24T01:41:24;25.70;68.80
54485;DHT22;45006;56.958;24.166;2023-06-24T01:43:55;25.70;68.80
54485;DHT22;45006;56.958;24.166;2023-06-24T01:46:24;25.70;69.50
54485;DHT22;45006;56.958;24.166;2023-06-24T01:48:59;25.70;68.60
54485;DHT22;45006;56.958;24.166;2023-06-24T01:51:30;25.70;68.60
54485;DHT22;45006;56.958;24.166;2023-06-24T01:54:02;25.70;68.40
54485;DHT22;45006;56.958;24.166;2023-06-24T01:56:30;25.70;68.40
54485;DHT22;45006;56.958;24.166;2023-06-24T01:59:01;25.70;68.80
54485;DHT22;45006;56.958;24.166;2023-06-24T02:01:29;25.60;68.50
54485;DHT22;45006;56.958;24.166;2023-06-24T02:04:00;25.70;68.60
54485;DHT22;45006;56.958;24.166;2023-06-24T02:06:29;25.60;68.60
54485;DHT22;45006;56.958;24.166;2023-06-24T02:08:58;25.60;68.60
54485;DHT22;45006;56.958;24.166;2023-06-24T02:11:28;25.60;68.40
54485;DHT22;45006;56.958;24.166;2023-06-24T02:13:59;25.60;68.40
54485;DHT22;45006;56.958;24.166;2023-06-24T02:16:27;25.70;68.50
54485;DHT22;45006;56.958;24.166;2023-06-24T02:18:56;25.70;68.60
54485;DHT22;45006;56.958;24.166;2023-06-24T02:21:24;25.60;68.70
54485;DHT22;45006;56.958;24.166;2023-06-24T02:23:53;25.60;68.40
54485;DHT22;45006;56.958;24.166;2023-06-24T02:26:20;25.60;68.30
54485;DHT22;45006;56.958;24.166;2023-06-24T02:28:49;25.60;68.50
54485;DHT22;45006;56.958;24.166;2023-06-24T02:31:16;25.60;68.40
54485;DHT22;45006;56.958;24.166;2023-06-24T02:33:44;25.60;68.70
54485;DHT22;45006;56.958;24.166;2023-06-24T02:36:11;25.60;68.60
54485;DHT22;45006;56.958;24.166;2023-06-24T02:38:38;25.60;68.50
54485;DHT22;45006;56.958;24.166;2023-06-24T02:41:07;25.60;68.50
54485;DHT22;45006;56.958;24.166;2023-06-24T02:43:34;25.60;68.50
54485;DHT22;45006;56.958;24.166;2023-06-24T02:46:03;25.70;68.80
54485;DHT22;45006;56.958;24.166;2023-06-24T02:48:32;25.60;68.80
54485;DHT22;45006;56.958;24.166;2023-06-24T02:50:59;25.70;68.70
54485;DHT22;45006;56.958;24.166;2023-06-24T02:53:27;25.60;68.60
54485;DHT22;45006;56.958;24.166;2023-06-24T02:55:55;25.60;68.70
54485;DHT22;45006;56.958;24.166;2023-06-24T02:58:24;25.70;68.60
54485;DHT22;45006;56.958;24.166;2023-06-24T03:00:59;25.70;68.70
54485;DHT22;45006;56.958;24.166;2023-06-24T03:03:27;25.70;68.60
54485;DHT22;45006;56.958;24.166;2023-06-24T03:05:55;25.70;68.70
54485;DHT22;45006;56.958;24.166;2023-06-24T03:08:25;25.70;68.70
54485;DHT22;45006;56.958;24.166;2023-06-24T03:10:57;25.70;68.50
54485;DHT22;45006;56.958;24.166;2023-06-24T03:13:25;25.70;68.90
54485;DHT22;45006;56.958;24.166;2023-06-24T03:15:52;25.70;68.90
54485;DHT22;45006;56.958;24.166;2023-06-24T03:18:20;25.70;68.50
54485;DHT22;45006;56.958;24.166;2023-06-24T03:20:47;25.70;68.50
54485;DHT22;45006;56.958;24.166;2023-06-24T03:23:14;25.70;68.70
54485;DHT22;45006;56.958;24.166;2023-06-24T03:25:41;25.70;68.80
54485;DHT22;45006;56.958;24.166;2023-06-24T03:28:08;25.70;68.70
54485;DHT22;45006;56.958;24.166;2023-06-24T03:30:35;25.60;68.70
54485;DHT22;45006;56.958;24.166;2023-06-24T03:33:02;25.70;68.80
54485;DHT22;45006;56.958;24.166;2023-06-24T03:35:29;25.70;68.80
54485;DHT22;45006;56.958;24.166;2023-06-24T03:37:59;25.70;68.90
54485;DHT22;45006;56.958;24.166;2023-06-24T03:40:26;25.70;68.80
54485;DHT22;45006;56.958;24.166;2023-06-24T03:42:53;25.70;68.60
54485;DHT22;45006;56.958;24.166;2023-06-24T03:45:20;25.70;68.50
54485;DHT22;45006;56.958;24.166;2023-06-24T03:47:47;25.70;68.10
54485;DHT22;45006;56.958;24.166;2023-06-24T03:50:15;25.70;68.00
54485;DHT22;45006;56.958;24.166;2023-06-24T03:52:42;25.70;68.00
54485;DHT22;45006;56.958;24.166;2023-06-24T03:55:11;25.70;68.00
54485;DHT22;45006;56.958;24.166;2023-06-24T03:57:38;25.70;67.60
54485;DHT22;45006;56.958;24.166;2023-06-24T04:00:05;25.70;67.80
54485;DHT22;45006;56.958;24.166;2023-06-24T04:02:40;25.70;67.80
54485;DHT22;45006;56.958;24.166;2023-06-24T04:05:15;25.70;67.90
54485;DHT22;45006;56.958;24.166;2023-06-24T04:07:42;25.70;67.90
54485;DHT22;45006;56.958;24.166;2023-06-24T04:10:14;25.70;67.90
54485;DHT22;45006;56.958;24.166;2023-06-24T04:12:41;25.70;67.90
54485;DHT22;45006;56.958;24.166;2023-06-24T04:15:08;25.70;67.60
54485;DHT22;45006;56.958;24.166;2023-06-24T04:17:35;25.70;67.50
54485;DHT22;45006;56.958;24.166;2023-06-24T04:20:02;25.70;67.30
54485;DHT22;45006;56.958;24.166;2023-06-24T04:22:37;25.70;67.40
54485;DHT22;45006;56.958;24.166;2023-06-24T04:25:06;25.70;67.30
54485;DHT22;45006;56.958;24.166;2023-06-24T04:27:33;25.70;67.10
54485;DHT22;45006;56.958;24.166;2023-06-24T04:30:01;25.70;67.00
54485;DHT22;45006;56.958;24.166;2023-06-24T04:32:30;25.70;66.90
54485;DHT22;45006;56.958;24.166;2023-06-24T04:34:59;25.70;66.80
54485;DHT22;45006;56.958;24.166;2023-06-24T04:37:29;25.80;66.70
54485;DHT22;45006;56.958;24.166;2023-06-24T04:39:56;25.70;66.50
54485;DHT22;45006;56.958;24.166;2023-06-24T04:42:23;25.80;67.20
54485;DHT22;45006;56.958;24.166;2023-06-24T04:44:50;25.80;67.40
54485;DHT22;45006;56.958;24.166;2023-06-24T04:47:18;25.80;67.60
54485;DHT22;45006;56.958;24.166;2023-06-24T04:49:45;25.80;67.40
54485;DHT22;45006;56.958;24.166;2023-06-24T04:52:12;25.80;67.40
54485;DHT22;45006;56.958;24.166;2023-06-24T04:54:40;25.80;67.50
54485;DHT22;45006;56.958;24.166;2023-06-24T04:57:09;25.80;67.40
54485;DHT22;45006;56.958;24.166;2023-06-24T04:59:36;25.80;67.50
54485;DHT22;45006;56.958;24.166;2023-06-24T05:02:05;25.70;67.30
54485;DHT22;45006;56.958;24.166;2023-06-24T05:04:32;25.70;67.40
54485;DHT22;45006;56.958;24.166;2023-06-24T05:06:59;25.70;67.40
54485;DHT22;45006;56.958;24.166;2023-06-24T05:09:26;25.70;67.30
54485;DHT22;45006;56.958;24.166;2023-06-24T05:11:53;25.70;67.20
54485;DHT22;45006;56.958;24.166;2023-06-24T05:14:20;25.70;67.40
54485;DHT22;45006;56.958;24.166;2023-06-24T05:16:47;25.80;67.60
54485;DHT22;45006;56.958;24.166;2023-06-24T05:19:14;25.80;67.60
54485;DHT22;45006;56.958;24.166;2023-06-24T05:21:43;25.80;67.40
54485;DHT22;45006;56.958;24.166;2023-06-24T05:24:11;25.80;67.30
54485;DHT22;45006;56.958;24.166;2023-06-24T05:26:38;25.70;67.40
54485;DHT22;45006;56.958;24.166;2023-06-24T05:29:05;25.70;67.50
54485;DHT22;45006;56.958;24.166;2023-06-24T05:31:32;25.80;68.00
54485;DHT22;45006;56.958;24.166;2023-06-24T05:34:02;25.80;67.60
54485;DHT22;45006;56.958;24.166;2023-06-24T05:36:29;25.80;67.40
54485;DHT22;45006;56.958;24.166;2023-06-24T05:38:57;25.80;67.40
54485;DHT22;45006;56.958;24.166;2023-06-24T05:41:24;25.80;67.50
54485;DHT22;45006;56.958;24.166;2023-06-24T05:44:07;25.80;67.30
54485;DHT22;45006;56.958;24.166;2023-06-24T05:46:36;26.00;67.20
54485;DHT22;45006;56.958;24.166;2023-06-24T05:49:03;26.10;67.00
54485;DHT22;45006;56.958;24.166;2023-06-24T05:51:31;26.00;66.70
54485;DHT22;45006;56.958;24.166;2023-06-24T05:53:58;26.00;66.70
54485;DHT22;45006;56.958;24.166;2023-06-24T05:56:25;26.00;66.90
54485;DHT22;45006;56.958;24.166;2023-06-24T05:58:52;26.00;67.10
54485;DHT22;45006;56.958;24.166;2023-06-24T06:01:19;26.00;67.20
54485;DHT22;45006;56.958;24.166;2023-06-24T06:03:46;26.20;67.20
54485;DHT22;45006;56.958;24.166;2023-06-24T06:06:14;26.20;66.90
54485;DHT22;45006;56.958;24.166;2023-06-24T06:08:40;26.10;66.80
54485;DHT22;45006;56.958;24.166;2023-06-24T06:11:10;26.10;66.90
54485;DHT22;45006;56.958;24.166;2023-06-24T06:13:37;26.20;67.20
54485;DHT22;45006;56.958;24.166;2023-06-24T06:16:04;26.20;67.10
54485;DHT22;45006;56.958;24.166;2023-06-24T06:18:31;26.30;66.90
54485;DHT22;45006;56.958;24.166;2023-06-24T06:20:58;26.30;67.70
54485;DHT22;45006;56.958;24.166;2023-06-24T06:23:27;26.30;66.10
54485;DHT22;45006;56.958;24.166;2023-06-24T06:25:55;26.30;66.60
54485;DHT22;45006;56.958;24.166;2023-06-24T06:28:23;26.30;66.10
54485;DHT22;45006;56.958;24.166;2023-06-24T06:30:50;26.30;66.20
54485;DHT22;45006;56.958;24.166;2023-06-24T06:33:17;26.30;66.10
54485;DHT22;45006;56.958;24.166;2023-06-24T06:35:44;26.30;66.00
54485;DHT22;45006;56.958;24.166;2023-06-24T06:38:12;26.20;65.80
54485;DHT22;45006;56.958;24.166;2023-06-24T06:40:39;26.20;65.90
54485;DHT22;45006;56.958;24.166;2023-06-24T06:43:07;26.30;66.20
54485;DHT22;45006;56.958;24.166;2023-06-24T06:45:35;26.30;66.10
54485;DHT22;45006;56.958;24.166;2023-06-24T06:48:02;26.40;66.10
54485;DHT22;45006;56.958;24.166;2023-06-24T06:50:34;26.40;66.20
54485;DHT22;45006;56.958;24.166;2023-06-24T06:53:01;26.40;66.10
54485;DHT22;45006;56.958;24.166;2023-06-24T06:55:28;26.40;66.20
54485;DHT22;45006;56.958;24.166;2023-06-24T06:57:55;26.40;66.10
54485;DHT22;45006;56.958;24.166;2023-06-24T07:00:23;26.50;66.00
54485;DHT22;45006;56.958;24.166;2023-06-24T07:02:50;26.50;66.00
54485;DHT22;45006;56.958;24.166;2023-06-24T07:05:17;26.50;66.50
54485;DHT22;45006;56.958;24.166;2023-06-24T07:07:44;26.50;66.10
54485;DHT22;45006;56.958;24.166;2023-06-24T07:10:12;26.50;65.70
54485;DHT22;45006;56.958;24.166;2023-06-24T07:12:40;26.50;65.70
54485;DHT22;45006;56.958;24.166;2023-06-24T07:15:08;26.50;65.60
54485;DHT22;45006;56.958;24.166;2023-06-24T07:17:39;26.50;65.60
54485;DHT22;45006;56.958;24.166;2023-06-24T07:20:06;26.50;65.60
54485;DHT22;45006;56.958;24.166;2023-06-24T07:22:35;26.40;65.60
54485;DHT22;45006;56.958;24.166;2023-06-24T07:25:02;26.40;65.70
54485;DHT22;45006;56.958;24.166;2023-06-24T07:27:29;26.40;65.50
54485;DHT22;45006;56.958;24.166;2023-06-24T07:29:56;26.40;65.70
54485;DHT22;45006;56.958;24.166;2023-06-24T07:32:23;26.50;66.00
54485;DHT22;45006;56.958;24.166;2023-06-24T07:34:50;26.50;65.90
54485;DHT22;45006;56.958;24.166;2023-06-24T07:37:17;26.50;66.80
54485;DHT22;45006;56.958;24.166;2023-06-24T07:39:52;26.50;66.40
54485;DHT22;45006;56.958;24.166;2023-06-24T07:42:19;26.60;67.40
54485;DHT22;45006;56.958;24.166;2023-06-24T07:44:46;26.60;66.40
54485;DHT22;45006;56.958;24.166;2023-06-24T07:47:14;26.60;66.40
54485;DHT22;45006;56.958;24.166;2023-06-24T07:49:41;26.50;66.70
54485;DHT22;45006;56.958;24.166;2023-06-24T07:52:08;26.50;66.50
54485;DHT22;45006;56.958;24.166;2023-06-24T07:54:35;26.50;66.80
54485;DHT22;45006;56.958;24.166;2023-06-24T07:57:02;26.50;66.50
54485;DHT22;45006;56.958;24.166;2023-06-24T07:59:29;26.50;66.20
54485;DHT22;45006;56.958;24.166;2023-06-24T08:01:56;26.50;66.10
54485;DHT22;45006;56.958;24.166;2023-06-24T08:04:24;26.50;66.50
54485;DHT22;45006;56.958;24.166;2023-06-24T08:06:51;26.50;66.80
54485;DHT22;45006;56.958;24.166;2023-06-24T08:09:19;26.50;66.80
54485;DHT22;45006;56.958;24.166;2023-06-24T08:11:46;26.50;66.80
54485;DHT22;45006;56.958;24.166;2023-06-24T08:14:14;26.50;66.90
54485;DHT22;45006;56.958;24.166;2023-06-24T08:16:42;26.50;67.00
54485;DHT22;45006;56.958;24.166;2023-06-24T08:19:09;26.50;67.00
54485;DHT22;45006;56.958;24.166;2023-06-24T08:21:36;26.50;67.20
54485;DHT22;45006;56.958;24.166;2023-06-24T08:24:05;26.40;67.10
54485;DHT22;45006;56.958;24.166;2023-06-24T08:26:34;26.40;67.10
54485;DHT22;45006;56.958;24.166;2023-06-24T08:29:00;26.40;67.00
54485;DHT22;45006;56.958;24.166;2023-06-24T08:31:30;26.40;67.10
54485;DHT22;45006;56.958;24.166;2023-06-24T08:33:59;26.40;67.20
54485;DHT22;45006;56.958;24.166;2023-06-24T08:36:29;26.40;67.10
54485;DHT22;45006;56.958;24.166;2023-06-24T08:38:56;26.40;66.80
54485;DHT22;45006;56.958;24.166;2023-06-24T08:41:24;26.40;66.80
54485;DHT22;45006;56.958;24.166;2023-06-24T08:43:53;26.40;66.50
54485;DHT22;45006;56.958;24.166;2023-06-24T08:46:24;26.40;64.40
54485;DHT22;45006;56.958;24.166;2023-06-24T08:49:08;26.30;64.30
54485;DHT22;45006;56.958;24.166;2023-06-24T08:51:41;26.30;65.00
54485;DHT22;45006;56.958;24.166;2023-06-24T08:54:09;26.40;65.80
54485;DHT22;45006;56.958;24.166;2023-06-24T08:56:38;26.30;65.40
54485;DHT22;45006;56.958;24.166;2023-06-24T08:59:08;26.40;65.60
54485;DHT22;45006;56.958;24.166;2023-06-24T09:01:36;26.40;65.90
54485;DHT22;45006;56.958;24.166;2023-06-24T09:04:03;26.40;66.40
54485;DHT22;45006;56.958;24.166;2023-06-24T09:06:31;26.30;66.80
54485;DHT22;45006;56.958;24.166;2023-06-24T09:08:58;26.30;66.60
54485;DHT22;45006;56.958;24.166;2023-06-24T09:11:27;26.40;66.30
54485;DHT22;45006;56.958;24.166;2023-06-24T09:13:55;26.40;66.80
54485;DHT22;45006;56.958;24.166;2023-06-24T09:16:23;26.40;67.10
54485;DHT22;45006;56.958;24.166;2023-06-24T09:18:51;26.40;67.50
54485;DHT22;45006;56.958;24.166;2023-06-24T09:21:28;26.40;67.50
54485;DHT22;45006;56.958;24.166;2023-06-24T09:23:58;26.40;67.60
54485;DHT22;45006;56.958;24.166;2023-06-24T09:26:27;26.30;67.80
54485;DHT22;45006;56.958;24.166;2023-06-24T09:28:58;26.30;67.60
54485;DHT22;45006;56.958;24.166;2023-06-24T09:31:26;26.30;67.90
54485;DHT22;45006;56.958;24.166;2023-06-24T09:33:59;26.30;68.00
54485;DHT22;45006;56.958;24.166;2023-06-24T09:36:26;26.40;67.70
54485;DHT22;45006;56.958;24.166;2023-06-24T09:38:55;26.40;68.00
54485;DHT22;45006;56.958;24.166;2023-06-24T09:41:24;26.40;68.20
54485;DHT22;45006;56.958;24.166;2023-06-24T09:43:51;26.40;68.40
54485;DHT22;45006;56.958;24.166;2023-06-24T09:46:18;26.40;68.90
54485;DHT22;45006;56.958;24.166;2023-06-24T09:48:45;26.40;68.90
54485;DHT22;45006;56.958;24.166;2023-06-24T09:51:14;26.40;69.00
54485;DHT22;45006;56.958;24.166;2023-06-24T09:53:42;26.40;69.20
54485;DHT22;45006;56.958;24.166;2023-06-24T09:56:11;26.40;68.90
54485;DHT22;45006;56.958;24.166;2023-06-24T09:58:41;26.30;68.90
54485;DHT22;45006;56.958;24.166;2023-06-24T10:01:10;26.30;68.90
54485;DHT22;45006;56.958;24.166;2023-06-24T10:03:37;26.30;68.90
54485;DHT22;45006;56.958;24.166;2023-06-24T10:06:07;26.30;68.90
54485;DHT22;45006;56.958;24.166;2023-06-24T10:08:35;26.30;68.90
54485;DHT22;45006;56.958;24.166;2023-06-24T10:11:02;26.30;69.00
54485;DHT22;45006;56.958;24.166;2023-06-24T10:13:31;26.30;69.00
54485;DHT22;45006;56.958;24.166;2023-06-24T10:15:59;26.30;69.00
54485;DHT22;45006;56.958;24.166;2023-06-24T10:18:38;26.30;69.00
54485;DHT22;45006;56.958;24.166;2023-06-24T10:21:07;26.30;69.00
54485;DHT22;45006;56.958;24.166;2023-06-24T10:26:10;26.30;69.10
54485;DHT22;45006;56.958;24.166;2023-06-24T10:42:28;26.20;69.20
54485;DHT22;45006;56.958;24.166;2023-06-24T10:47:25;26.20;69.20
54485;DHT22;45006;56.958;24.166;2023-06-24T10:49:52;26.20;69.20
54485;DHT22;45006;56.958;24.166;2023-06-24T10:52:20;26.20;69.30
54485;DHT22;45006;56.958;24.166;2023-06-24T10:54:51;26.20;69.30
54485;DHT22;45006;56.958;24.166;2023-06-24T10:57:26;26.20;69.40
54485;DHT22;45006;56.958;24.166;2023-06-24T10:59:55;26.20;69.30
54485;DHT22;45006;56.958;24.166;2023-06-24T11:02:27;26.20;69.40
54485;DHT22;45006;56.958;24.166;2023-06-24T11:04:59;26.20;69.40
54485;DHT22;45006;56.958;24.166;2023-06-24T11:07:32;26.20;69.50
54485;DHT22;45006;56.958;24.166;2023-06-24T11:10:12;26.20;69.50
54485;DHT22;45006;56.958;24.166;2023-06-24T11:12:41;26.20;69.50
54485;DHT22;45006;56.958;24.166;2023-06-24T11:15:10;26.20;69.60
54485;DHT22;45006;56.958;24.166;2023-06-24T11:17:40;26.20;69.50
54485;DHT22;45006;56.958;24.166;2023-06-24T11:20:13;26.20;69.50
54485;DHT22;45006;56.958;24.166;2023-06-24T11:22:41;26.20;69.60
54485;DHT22;45006;56.958;24.166;2023-06-24T11:25:19;26.20;69.50
54485;DHT22;45006;56.958;24.166;2023-06-24T11:27:46;26.20;69.60
54485;DHT22;45006;56.958;24.166;2023-06-24T11:30:13;26.20;69.60
54485;DHT22;45006;56.958;24.166;2023-06-24T11:32:43;26.20;69.60
54485;DHT22;45006;56.958;24.166;2023-06-24T11:35:13;26.20;69.60
54485;DHT22;45006;56.958;24.166;2023-06-24T11:37:43;26.10;69.60
54485;DHT22;45006;56.958;24.166;2023-06-24T11:40:10;26.20;69.70
54485;DHT22;45006;56.958;24.166;2023-06-24T11:42:40;26.20;69.70
54485;DHT22;45006;56.958;24.166;2023-06-24T11:45:10;26.10;69.70
54485;DHT22;45006;56.958;24.166;2023-06-24T11:47:41;26.20;69.80
54485;DHT22;45006;56.958;24.166;2023-06-24T11:50:09;26.10;69.80
54485;DHT22;45006;56.958;24.166;2023-06-24T11:52:43;26.10;69.70
54485;DHT22;45006;56.958;24.166;2023-06-24T11:55:18;26.10;69.70
54485;DHT22;45006;56.958;24.166;2023-06-24T12:00:33;26.10;69.80
54485;DHT22;45006;56.958;24.166;2023-06-24T12:03:05;26.20;69.90
54485;DHT22;45006;56.958;24.166;2023-06-24T12:05:37;26.10;69.90
54485;DHT22;45006;56.958;24.166;2023-06-24T12:08:09;26.10;70.00
54485;DHT22;45006;56.958;24.166;2023-06-24T12:10:38;26.20;70.30
54485;DHT22;45006;56.958;24.166;2023-06-24T12:13:08;26.20;70.40
54485;DHT22;45006;56.958;24.166;2023-06-24T12:15:40;26.10;70.20
54485;DHT22;45006;56.958;24.166;2023-06-24T12:18:09;26.10;69.90
54485;DHT22;45006;56.958;24.166;2023-06-24T12:20:36;26.10;70.00
54485;DHT22;45006;56.958;24.166;2023-06-24T12:23:05;26.10;70.00
54485;DHT22;45006;56.958;24.166;2023-06-24T12:25:32;26.10;70.00
54485;DHT22;45006;56.958;24.166;2023-06-24T12:27:59;26.10;70.00
54485;DHT22;45006;56.958;24.166;2023-06-24T12:30:27;26.10;70.10
54485;DHT22;45006;56.958;24.166;2023-06-24T12:32:54;26.10;70.10
54485;DHT22;45006;56.958;24.166;2023-06-24T12:35:22;26.10;70.20
54485;DHT22;45006;56.958;24.166;2023-06-24T12:37:54;26.10;70.10
54485;DHT22;45006;56.958;24.166;2023-06-24T12:40:21;26.10;70.10
54485;DHT22;45006;56.958;24.166;2023-06-24T12:42:49;26.10;70.10
54485;DHT22;45006;56.958;24.166;2023-06-24T12:45:16;26.10;70.10
54485;DHT22;45006;56.958;24.166;2023-06-24T12:47:43;26.10;70.10
54485;DHT22;45006;56.958;24.166;2023-06-24T12:50:10;26.10;70.70
54485;DHT22;45006;56.958;24.166;2023-06-24T12:52:37;26.10;70.10
54485;DHT22;45006;56.958;24.166;2023-06-24T12:55:05;26.10;70.10
54485;DHT22;45006;56.958;24.166;2023-06-24T12:57:34;26.10;70.10
54485;DHT22;45006;56.958;24.166;2023-06-24T13:00:02;26.10;70.10
54485;DHT22;45006;56.958;24.166;2023-06-24T13:02:34;26.10;70.10
54485;DHT22;45006;56.958;24.166;2023-06-24T13:05:01;26.10;70.10
54485;DHT22;45006;56.958;24.166;2023-06-24T13:07:30;26.10;70.20
54485;DHT22;45006;56.958;24.166;2023-06-24T13:09:58;26.10;70.20
54485;DHT22;45006;56.958;24.166;2023-06-24T13:12:26;26.10;70.20
54485;DHT22;45006;56.958;24.166;2023-06-24T13:14:53;26.10;70.20
54485;DHT22;45006;56.958;24.166;2023-06-24T13:17:22;26.10;70.20
54485;DHT22;45006;56.958;24.166;2023-06-24T13:19:51;26.10;70.20
54485;DHT22;45006;56.958;24.166;2023-06-24T13:22:24;26.10;70.30
54485;DHT22;45006;56.958;24.166;2023-06-24T13:24:57;26.10;70.30
54485;DHT22;45006;56.958;24.166;2023-06-24T13:27:27;26.10;70.30
54485;DHT22;45006;56.958;24.166;2023-06-24T13:29:54;26.10;70.30
54485;DHT22;45006;56.958;24.166;2023-06-24T13:32:21;26.10;70.30
54485;DHT22;45006;56.958;24.166;2023-06-24T13:34:48;26.10;70.30
54485;DHT22;45006;56.958;24.166;2023-06-24T13:37:16;26.10;70.40
54485;DHT22;45006;56.958;24.166;2023-06-24T13:39:43;26.10;70.50
54485;DHT22;45006;56.958;24.166;2023-06-24T13:42:11;26.10;70.40
54485;DHT22;45006;56.958;24.166;2023-06-24T13:44:39;26.10;70.50
54485;DHT22;45006;56.958;24.166;2023-06-24T13:47:06;26.10;70.50
54485;DHT22;45006;56.958;24.166;2023-06-24T13:49:33;26.10;70.50
54485;DHT22;45006;56.958;24.166;2023-06-24T13:52:00;26.10;70.50
54485;DHT22;45006;56.958;24.166;2023-06-24T13:54:27;26.10;70.50
54485;DHT22;45006;56.958;24.166;2023-06-24T13:56:58;26.10;70.60
54485;DHT22;45006;56.958;24.166;2023-06-24T13:59:25;26.10;70.60
54485;DHT22;45006;56.958;24.166;2023-06-24T14:01:52;26.10;70.50
54485;DHT22;45006;56.958;24.166;2023-06-24T14:04:23;26.10;70.60
54485;DHT22;45006;56.958;24.166;2023-06-24T14:06:50;26.10;70.60
54485;DHT22;45006;56.958;24.166;2023-06-24T14:09:18;26.10;70.60
54485;DHT22;45006;56.958;24.166;2023-06-24T14:11:45;26.10;70.50
54485;DHT22;45006;56.958;24.166;2023-06-24T14:14:12;26.10;70.50
54485;DHT22;45006;56.958;24.166;2023-06-24T14:16:39;26.10;70.50
54485;DHT22;45006;56.958;24.166;2023-06-24T14:19:07;26.10;70.60
54485;DHT22;45006;56.958;24.166;2023-06-24T14:21:35;26.10;70.60
54485;DHT22;45006;56.958;24.166;2023-06-24T14:24:03;26.10;70.60
54485;DHT22;45006;56.958;24.166;2023-06-24T14:26:42;26.10;70.60
54485;DHT22;45006;56.958;24.166;2023-06-24T14:29:09;26.10;70.90
54485;DHT22;45006;56.958;24.166;2023-06-24T14:31:36;26.10;70.60
54485;DHT22;45006;56.958;24.166;2023-06-24T14:34:05;26.10;70.70
54485;DHT22;45006;56.958;24.166;2023-06-24T14:36:32;26.10;70.70
54485;DHT22;45006;56.958;24.166;2023-06-24T14:38:58;26.10;70.70
54485;DHT22;45006;56.958;24.166;2023-06-24T14:41:25;26.10;70.70
54485;DHT22;45006;56.958;24.166;2023-06-24T14:43:52;26.10;70.60
54485;DHT22;45006;56.958;24.166;2023-06-24T14:46:19;26.10;70.70
54485;DHT22;45006;56.958;24.166;2023-06-24T14:48:46;26.10;70.70
54485;DHT22;45006;56.958;24.166;2023-06-24T14:51:15;26.10;70.70
54485;DHT22;45006;56.958;24.166;2023-06-24T14:53:43;26.10;70.60
54485;DHT22;45006;56.958;24.166;2023-06-24T14:56:10;26.10;70.70
54485;DHT22;45006;56.958;24.166;2023-06-24T14:58:37;26.10;70.70
54485;DHT22;45006;56.958;24.166;2023-06-24T15:01:03;26.00;70.60
54485;DHT22;45006;56.958;24.166;2023-06-24T15:03:33;26.10;70.70
54485;DHT22;45006;56.958;24.166;2023-06-24T15:06:00;26.00;70.60
54485;DHT22;45006;56.958;24.166;2023-06-24T15:08:28;26.10;70.70
54485;DHT22;45006;56.958;24.166;2023-06-24T15:10:55;26.00;70.60
54485;DHT22;45006;56.958;24.166;2023-06-24T15:13:22;26.00;70.70
54485;DHT22;45006;56.958;24.166;2023-06-24T15:15:50;26.00;70.80
54485;DHT22;45006;56.958;24.166;2023-06-24T15:18:18;26.00;71.10
54485;DHT22;45006;56.958;24.166;2023-06-24T15:20:46;26.00;71.00
54485;DHT22;45006;56.958;24.166;2023-06-24T15:23:13;26.00;71.00
54485;DHT22;45006;56.958;24.166;2023-06-24T15:25:40;26.00;71.00
54485;DHT22;45006;56.958;24.166;2023-06-24T15:28:07;26.00;71.00
54485;DHT22;45006;56.958;24.166;2023-06-24T15:30:34;26.00;71.10
54485;DHT22;45006;56.958;24.166;2023-06-24T15:33:02;26.00;71.10
54485;DHT22;45006;56.958;24.166;2023-06-24T15:35:29;26.00;71.00
54485;DHT22;45006;56.958;24.166;2023-06-24T15:37:56;26.00;71.10
54485;DHT22;45006;56.958;24.166;2023-06-24T15:40:23;26.00;71.00
54485;DHT22;45006;56.958;24.166;2023-06-24T15:42:49;26.00;71.10
54485;DHT22;45006;56.958;24.166;2023-06-24T15:45:16;26.00;71.00
54485;DHT22;45006;56.958;24.166;2023-06-24T15:47:44;26.00;71.00
54485;DHT22;45006;56.958;24.166;2023-06-24T15:50:11;26.00;71.00
54485;DHT22;45006;56.958;24.166;2023-06-24T15:52:38;26.00;71.00
54485;DHT22;45006;56.958;24.166;2023-06-24T15:55:05;26.00;71.00
54485;DHT22;45006;56.958;24.166;2023-06-24T15:57:35;26.00;71.00